createdAt,value
2023-05-02T00:00:40.386Z,3.53
2023-05-02T00:03:07.596Z,3.60
2023-05-02T00:05:34.600Z,3.30
2023-05-02T00:08:01.136Z,3.88
2023-05-02T00:10:27.625Z,3.28
2023-05-02T00:12:54.091Z,3.50
2023-05-02T00:15:20.666Z,3.65
2023-05-02T00:17:47.433Z,3.83
2023-05-02T00:20:13.783Z,4.10
2023-05-02T00:22:40.340Z,3.65
2023-05-02T00:25:07.041Z,3.63
2023-05-02T00:27:33.493Z,3.83
2023-05-02T00:30:00.633Z,3.60
2023-05-02T00:32:27.524Z,4.30
2023-05-02T00:34:54.036Z,3.92
2023-05-02T00:37:20.467Z,3.83
2023-05-02T00:39:46.810Z,4.05
2023-05-02T00:42:13.228Z,3.70
2023-05-02T00:44:40.309Z,4.25
2023-05-02T00:47:06.651Z,3.88
2023-05-02T00:49:33.077Z,3.95
2023-05-02T00:51:59.539Z,3.70
2023-05-02T00:54:26.292Z,4.10
2023-05-02T00:56:52.721Z,3.75
2023-05-02T00:59:19.476Z,3.88
2023-05-02T01:02:06.211Z,4.05
2023-05-02T01:04:50.757Z,3.88
2023-05-02T01:07:37.013Z,4.00
2023-05-02T01:10:09.631Z,3.50
2023-05-02T01:12:39.091Z,3.97
2023-05-02T01:15:07.529Z,3.78
2023-05-02T01:17:34.897Z,3.50
2023-05-02T01:20:13.703Z,3.92
2023-05-02T01:22:43.783Z,3.10
2023-05-02T01:25:19.038Z,3.55
2023-05-02T01:27:48.389Z,3.97
2023-05-02T01:30:14.961Z,3.60
2023-05-02T01:32:43.609Z,3.50
2023-05-02T01:35:10.847Z,3.67
2023-05-02T01:37:38.224Z,3.63
2023-05-02T01:40:05.374Z,3.30
2023-05-02T01:42:32.802Z,3.35
2023-05-02T01:45:00.256Z,3.25
2023-05-02T01:47:27.621Z,4.10
2023-05-02T01:49:54.006Z,3.97
2023-05-02T01:52:21.668Z,4.03
2023-05-02T01:54:49.806Z,4.30
2023-05-02T01:57:16.971Z,4.00
2023-05-02T01:59:43.566Z,4.15
2023-05-02T02:02:11.412Z,4.13
2023-05-02T02:04:39.100Z,4.28
2023-05-02T02:07:09.438Z,4.30
2023-05-02T02:09:35.981Z,3.90
2023-05-02T02:12:06.999Z,5.25
2023-05-02T02:14:41.911Z,4.72
2023-05-02T02:17:26.295Z,4.60
2023-05-02T02:19:56.202Z,3.92
2023-05-02T02:22:24.014Z,4.47
2023-05-02T02:24:54.314Z,4.20
2023-05-02T02:27:20.916Z,4.30
2023-05-02T02:29:47.491Z,3.90
2023-05-02T02:32:13.870Z,4.13
2023-05-02T02:34:40.195Z,4.40
2023-05-02T02:37:19.001Z,4.35
2023-05-02T02:39:48.158Z,4.30
2023-05-02T02:42:18.914Z,4.13
2023-05-02T02:44:51.348Z,4.47
2023-05-02T02:47:28.280Z,3.67
2023-05-02T02:49:57.761Z,3.80
2023-05-02T02:52:33.082Z,3.65
2023-05-02T02:55:03.586Z,3.90
2023-05-02T02:57:36.311Z,3.95
2023-05-02T03:00:07.278Z,4.07
2023-05-02T03:02:34.093Z,3.60
2023-05-02T03:05:02.125Z,3.80
2023-05-02T03:07:28.840Z,4.00
2023-05-02T03:09:55.570Z,4.25
2023-05-02T03:12:22.348Z,4.70
2023-05-02T03:14:48.680Z,4.93
2023-05-02T03:17:15.119Z,4.05
2023-05-02T03:19:41.487Z,4.53
2023-05-02T03:22:07.912Z,4.82
2023-05-02T03:24:34.312Z,5.28
2023-05-02T03:27:00.671Z,4.40
2023-05-02T03:29:28.650Z,5.13
2023-05-02T03:31:55.068Z,5.15
2023-05-02T03:34:22.335Z,5.55
2023-05-02T03:36:49.159Z,5.10
2023-05-02T03:39:15.621Z,4.97
2023-05-02T03:41:43.745Z,4.50
2023-05-02T03:44:10.107Z,4.43
2023-05-02T03:46:36.674Z,4.40
2023-05-02T03:49:03.065Z,4.97
2023-05-02T03:51:29.501Z,4.55
2023-05-02T03:53:56.081Z,4.07
2023-05-02T03:56:23.072Z,4.82
2023-05-02T03:58:49.464Z,4.68
2023-05-02T04:01:16.433Z,4.60
2023-05-02T04:03:43.193Z,4.55
2023-05-02T04:06:09.841Z,4.50
2023-05-02T04:08:36.929Z,5.03
2023-05-02T04:11:03.502Z,5.40
2023-05-02T04:13:29.952Z,4.70
2023-05-02T04:15:56.476Z,4.50
2023-05-02T04:18:22.760Z,5.20
2023-05-02T04:20:50.134Z,5.15
2023-05-02T04:23:17.491Z,4.93
2023-05-02T04:25:53.860Z,4.60
2023-05-02T04:28:23.301Z,5.00
2023-05-02T04:30:50.159Z,5.50
2023-05-02T04:33:17.107Z,4.72
2023-05-02T04:35:43.493Z,5.05
2023-05-02T04:38:09.926Z,4.85
2023-05-02T04:40:36.463Z,5.50
2023-05-02T04:43:02.961Z,4.97
2023-05-02T04:45:29.318Z,5.00
2023-05-02T04:47:55.974Z,4.47
2023-05-02T04:50:22.473Z,4.60
2023-05-02T04:52:48.962Z,4.05
2023-05-02T04:55:15.438Z,3.92
2023-05-02T05:18:21.833Z,4.30
2023-05-02T05:23:14.561Z,9.32
2023-05-02T05:25:42.338Z,3.85
2023-05-02T05:28:09.815Z,3.88
2023-05-02T05:30:36.438Z,4.03
2023-05-02T05:33:03.122Z,4.55
2023-05-02T05:35:29.546Z,3.67
2023-05-02T05:37:55.884Z,4.00
2023-05-02T05:40:22.366Z,3.38
2023-05-02T05:42:49.166Z,3.47
2023-05-02T05:45:17.145Z,3.50
2023-05-02T05:47:43.547Z,3.53
2023-05-02T05:50:10.824Z,3.47
2023-05-02T05:52:37.470Z,3.35
2023-05-02T05:55:04.166Z,3.00
2023-05-02T05:57:30.582Z,3.03
2023-05-02T05:59:57.099Z,2.92
2023-05-02T06:02:23.830Z,2.60
2023-05-02T06:04:50.406Z,2.45
2023-05-02T06:07:16.801Z,2.50
2023-05-02T06:09:43.133Z,2.40
2023-05-02T06:12:09.457Z,2.75
2023-05-02T06:14:35.893Z,2.95
2023-05-02T06:17:02.251Z,3.22
2023-05-02T06:19:28.646Z,2.97
2023-05-02T06:21:54.985Z,3.28
2023-05-02T06:24:21.373Z,3.15
2023-05-02T06:26:47.816Z,3.50
2023-05-02T06:29:14.163Z,3.78
2023-05-02T06:31:40.632Z,3.58
2023-05-02T06:34:07.186Z,4.18
2023-05-02T06:36:33.575Z,3.38
2023-05-02T06:38:59.974Z,3.53
2023-05-02T06:41:26.505Z,3.20
2023-05-02T06:43:52.872Z,3.60
2023-05-02T06:46:20.856Z,3.58
2023-05-02T06:48:47.271Z,3.67
2023-05-02T06:51:14.698Z,3.30
2023-05-02T06:53:41.616Z,2.85
2023-05-02T06:56:08.171Z,2.53
2023-05-02T06:58:34.518Z,3.10
2023-05-02T07:01:00.954Z,2.70
2023-05-02T07:03:27.340Z,2.50
2023-05-02T07:05:53.685Z,2.97
2023-05-02T07:08:22.400Z,3.15
2023-05-02T07:10:48.778Z,2.90
2023-05-02T07:13:15.213Z,3.40
2023-05-02T07:15:41.614Z,3.25
2023-05-02T07:18:08.012Z,3.10
2023-05-02T07:20:34.405Z,3.15
2023-05-02T07:23:00.801Z,3.45
2023-05-02T07:25:27.315Z,3.25
2023-05-02T07:27:53.730Z,3.90
2023-05-02T07:30:20.095Z,4.70
2023-05-02T07:32:46.583Z,4.35
2023-05-02T07:35:12.977Z,4.82
2023-05-02T07:37:39.373Z,6.30
2023-05-02T07:40:07.348Z,5.93
2023-05-02T07:42:33.689Z,5.50
2023-05-02T07:45:00.314Z,5.80
2023-05-02T07:47:27.097Z,6.97
2023-05-02T07:49:54.149Z,6.60
2023-05-02T07:52:20.830Z,7.13
2023-05-02T07:54:50.945Z,7.18
2023-05-02T07:57:17.582Z,7.93
2023-05-02T07:59:44.147Z,7.43
2023-05-02T08:02:13.040Z,7.43
2023-05-02T08:04:40.074Z,7.93
2023-05-02T08:07:06.680Z,7.13
2023-05-02T08:09:33.111Z,7.35
2023-05-02T08:11:59.496Z,7.53
2023-05-02T08:14:25.987Z,8.93
2023-05-02T08:16:52.569Z,7.57
2023-05-02T08:19:18.939Z,7.40
2023-05-02T08:21:45.313Z,7.97
2023-05-02T08:24:11.760Z,8.23
2023-05-02T08:26:38.180Z,8.60
2023-05-02T08:29:04.659Z,8.93
2023-05-02T08:31:31.183Z,8.43
2023-05-02T08:33:57.555Z,8.40
2023-05-02T08:36:24.582Z,8.52
2023-05-02T08:38:50.979Z,8.70
2023-05-02T08:41:18.456Z,8.85
2023-05-02T08:43:47.975Z,8.57
2023-05-02T08:46:15.032Z,8.27
2023-05-02T08:48:42.090Z,8.57
2023-05-02T08:51:09.720Z,8.77
2023-05-02T08:53:36.611Z,8.85
2023-05-02T08:56:03.181Z,8.73
2023-05-02T08:58:32.330Z,8.27
2023-05-02T09:01:05.237Z,8.13
2023-05-02T09:03:32.643Z,8.30
2023-05-02T09:06:08.921Z,8.05
2023-05-02T09:08:36.196Z,7.95
2023-05-02T09:11:03.901Z,7.60
2023-05-02T09:13:36.192Z,7.80
2023-05-02T09:16:04.102Z,7.43
2023-05-02T09:18:32.064Z,8.13
2023-05-02T09:20:59.027Z,8.40
2023-05-02T09:23:38.830Z,8.18
2023-05-02T09:26:15.971Z,7.55
2023-05-02T09:28:49.299Z,7.90
2023-05-02T09:31:23.018Z,8.23
2023-05-02T09:33:54.301Z,8.68
2023-05-02T09:36:21.403Z,6.82
2023-05-02T09:38:48.614Z,7.90
2023-05-02T09:41:15.011Z,7.32
2023-05-02T09:43:41.781Z,7.63
2023-05-02T09:46:09.360Z,8.15
2023-05-02T09:48:52.114Z,7.78
2023-05-02T09:51:18.887Z,7.30
2023-05-02T09:53:45.546Z,7.22
2023-05-02T09:56:11.878Z,7.03
2023-05-02T09:58:38.264Z,6.20
2023-05-02T10:01:04.795Z,6.60
2023-05-02T10:03:32.258Z,6.55
2023-05-02T10:05:58.883Z,6.90
2023-05-02T10:08:27.276Z,6.28
2023-05-02T10:10:54.667Z,7.05
2023-05-02T10:13:22.466Z,6.45
2023-05-02T10:15:50.018Z,6.18
2023-05-02T10:18:21.236Z,5.65
2023-05-02T10:23:14.901Z,5.78
2023-05-02T10:25:41.546Z,5.60
2023-05-02T10:28:08.116Z,6.53
2023-05-02T10:30:35.272Z,5.35
2023-05-02T10:33:03.126Z,5.53
2023-05-02T10:35:30.591Z,6.60
2023-05-02T10:37:57.134Z,6.00
2023-05-02T10:40:23.575Z,6.10
2023-05-02T10:42:51.548Z,6.10
2023-05-02T10:45:34.048Z,6.10
2023-05-02T10:48:12.988Z,6.25
2023-05-02T10:50:47.400Z,5.90
2023-05-02T10:53:27.121Z,5.80
2023-05-02T10:56:11.001Z,6.00
2023-05-02T10:58:37.399Z,6.50
2023-05-02T11:01:40.331Z,6.45
2023-05-02T11:04:10.895Z,6.00
2023-05-02T11:06:57.288Z,6.00
2023-05-02T11:09:23.620Z,6.30
2023-05-02T11:11:54.779Z,6.50
2023-05-02T11:14:27.545Z,6.10
2023-05-02T11:16:59.815Z,6.15
2023-05-02T11:19:28.112Z,6.13
2023-05-02T11:22:14.302Z,5.50
2023-05-02T11:24:41.851Z,4.97
2023-05-02T11:27:26.823Z,5.82
2023-05-02T11:29:53.982Z,5.43
2023-05-02T11:32:20.489Z,5.60
2023-05-02T11:34:47.879Z,4.72
2023-05-02T11:37:15.535Z,5.28
2023-05-02T11:39:42.181Z,4.57
2023-05-02T11:42:08.808Z,4.63
2023-05-02T11:44:52.400Z,5.15
2023-05-02T11:47:18.809Z,4.50
2023-05-02T11:49:45.332Z,4.68
2023-05-02T11:52:11.877Z,4.68
2023-05-02T11:54:38.286Z,5.03
2023-05-02T11:57:04.901Z,5.60
2023-05-02T11:59:31.331Z,5.57
2023-05-02T12:01:58.114Z,5.10
2023-05-02T12:04:26.422Z,5.10
2023-05-02T12:06:57.140Z,5.00
2023-05-02T12:09:23.657Z,4.82
2023-05-02T12:11:53.795Z,5.63
2023-05-02T12:14:30.669Z,5.57
2023-05-02T12:16:58.406Z,4.50
2023-05-02T12:19:25.208Z,4.30
2023-05-02T12:21:52.057Z,4.38
2023-05-02T12:24:18.628Z,3.85
2023-05-02T12:26:45.034Z,4.55
2023-05-02T12:29:12.582Z,4.43
2023-05-02T12:31:39.079Z,4.10
2023-05-02T12:34:05.582Z,3.55
2023-05-02T12:36:33.923Z,3.80
2023-05-02T12:39:02.030Z,3.58
2023-05-02T12:41:39.006Z,3.40
2023-05-02T12:44:07.145Z,3.30
2023-05-02T12:46:33.606Z,3.65
2023-05-02T12:49:10.106Z,3.58
2023-05-02T12:51:37.007Z,3.60
2023-05-02T12:54:04.310Z,3.50
2023-05-02T12:56:34.537Z,3.13
2023-05-02T12:59:01.228Z,4.40
2023-05-02T13:01:28.510Z,4.18
2023-05-02T13:03:55.018Z,3.92
2023-05-02T13:06:21.503Z,3.58
2023-05-02T13:08:47.924Z,4.78
2023-05-02T13:11:14.671Z,3.90
2023-05-02T13:13:41.029Z,3.42
2023-05-02T13:16:08.119Z,3.38
2023-05-02T13:18:34.742Z,3.30
2023-05-02T13:21:01.092Z,3.22
2023-05-02T13:23:27.549Z,2.90
2023-05-02T13:25:53.958Z,3.33
2023-05-02T13:28:20.346Z,2.90
2023-05-02T13:30:46.933Z,3.33
2023-05-02T13:33:13.451Z,2.67
2023-05-02T13:35:39.841Z,2.60
2023-05-02T13:38:06.311Z,3.00
2023-05-02T13:40:32.836Z,2.72
2023-05-02T13:42:59.189Z,2.25
2023-05-02T13:45:25.575Z,2.13
2023-05-02T13:47:51.959Z,2.47
2023-05-02T13:50:18.368Z,4.50
2023-05-02T13:52:46.971Z,3.78
2023-05-02T13:55:14.872Z,4.28
2023-05-02T13:57:41.261Z,4.38
2023-05-02T14:00:09.812Z,4.10
2023-05-02T14:02:36.828Z,3.80
2023-05-02T14:05:03.357Z,4.13
2023-05-02T14:07:30.795Z,4.45
2023-05-02T14:09:57.282Z,4.35
2023-05-02T14:12:23.805Z,4.72
2023-05-02T14:14:50.130Z,4.47
2023-05-02T14:17:16.600Z,4.90
2023-05-02T14:19:42.972Z,5.18
2023-05-02T14:22:09.404Z,5.20
2023-05-02T14:24:35.805Z,5.18
2023-05-02T14:27:02.454Z,4.75
2023-05-02T14:29:28.881Z,4.65
2023-05-02T14:31:55.381Z,4.55
2023-05-02T14:34:21.986Z,4.25
2023-05-02T14:36:48.436Z,4.95
2023-05-02T14:39:14.821Z,4.00
2023-05-02T14:41:41.472Z,4.47
2023-05-02T14:44:07.852Z,3.45
2023-05-02T14:46:34.385Z,3.67
2023-05-02T14:49:01.076Z,2.90
2023-05-02T14:51:27.419Z,3.30
2023-05-02T14:53:55.273Z,3.45
2023-05-02T14:56:22.112Z,3.30
2023-05-02T14:58:48.541Z,3.17
2023-05-02T15:01:21.769Z,3.33
2023-05-02T15:04:05.315Z,3.28
2023-05-02T15:06:34.064Z,2.90
2023-05-02T15:09:01.666Z,2.67
2023-05-02T15:11:28.052Z,2.90
2023-05-02T15:13:56.463Z,2.85
2023-05-02T15:16:23.856Z,2.60
2023-05-02T15:18:50.454Z,2.97
2023-05-02T15:21:16.778Z,2.58
2023-05-02T15:23:43.516Z,2.53
2023-05-02T15:26:09.890Z,2.08
2023-05-02T15:28:36.261Z,2.28
2023-05-02T15:31:02.652Z,2.40
2023-05-02T15:33:29.011Z,2.10
2023-05-02T15:35:56.379Z,2.22
2023-05-02T15:38:22.789Z,4.18
2023-05-02T15:40:56.468Z,2.30
2023-05-02T15:43:23.204Z,2.15
2023-05-02T15:45:59.439Z,2.70
2023-05-02T15:48:34.923Z,2.50
2023-05-02T15:51:02.620Z,2.25
2023-05-02T15:53:29.053Z,2.70
2023-05-02T15:55:55.510Z,2.60
2023-05-02T15:58:22.264Z,2.55
2023-05-02T16:00:48.597Z,2.38
2023-05-02T16:03:15.630Z,2.33
2023-05-02T16:05:42.163Z,3.00
2023-05-02T16:08:08.653Z,2.70
2023-05-02T16:10:36.501Z,2.78
2023-05-02T16:13:03.307Z,3.17
2023-05-02T16:15:30.327Z,2.75
2023-05-02T16:17:57.197Z,2.58
2023-05-02T16:20:23.832Z,2.63
2023-05-02T16:22:50.286Z,2.20
2023-05-02T16:25:17.351Z,2.40
2023-05-02T16:27:44.255Z,2.60
2023-05-02T16:30:10.922Z,2.83
2023-05-02T16:32:37.626Z,2.53
2023-05-02T16:35:06.968Z,2.60
2023-05-02T16:37:34.103Z,2.80
2023-05-02T16:40:01.213Z,2.83
2023-05-02T16:42:27.993Z,2.50
2023-05-02T16:44:55.513Z,2.50
2023-05-02T16:47:22.002Z,2.90
2023-05-02T16:49:52.332Z,2.78
2023-05-02T16:52:18.693Z,2.67
2023-05-02T16:54:45.083Z,2.92
2023-05-02T16:57:11.905Z,3.40
2023-05-02T16:59:38.226Z,3.72
2023-05-02T17:02:04.578Z,4.40
2023-05-02T17:04:31.436Z,3.50
2023-05-02T17:06:57.754Z,3.90
2023-05-02T17:09:24.471Z,3.70
2023-05-02T17:11:51.327Z,4.03
2023-05-02T17:14:18.158Z,5.18
2023-05-02T17:16:44.552Z,14.07
2023-05-02T17:19:11.583Z,5.00
2023-05-02T17:21:38.085Z,4.88
2023-05-02T17:24:04.588Z,5.03
2023-05-02T17:26:30.979Z,4.25
2023-05-02T17:28:57.342Z,4.93
2023-05-02T17:31:24.061Z,5.70
2023-05-02T17:33:50.896Z,3.83
2023-05-02T17:36:17.217Z,4.18
2023-05-02T17:38:45.028Z,4.20
2023-05-02T17:41:12.041Z,4.10
2023-05-02T17:43:38.603Z,3.63
2023-05-02T17:46:09.154Z,3.90
2023-05-02T17:48:36.817Z,4.35
2023-05-02T17:51:04.231Z,4.22
2023-05-02T17:53:31.272Z,4.00
2023-05-02T17:55:57.700Z,4.47
2023-05-02T17:58:24.069Z,3.90
2023-05-02T18:00:51.287Z,4.40
2023-05-02T18:03:18.420Z,4.53
2023-05-02T18:05:47.258Z,4.20
2023-05-02T18:08:13.896Z,4.53
2023-05-02T18:10:41.081Z,4.70
2023-05-02T18:13:07.760Z,4.55
2023-05-02T18:15:34.190Z,3.97
2023-05-02T18:18:00.672Z,4.55
2023-05-02T18:20:27.207Z,4.63
2023-05-02T18:22:57.113Z,4.30
2023-05-02T18:25:23.552Z,4.60
2023-05-02T18:27:49.854Z,4.65
2023-05-02T18:30:16.260Z,4.28
2023-05-02T18:32:42.728Z,4.50
2023-05-02T18:35:11.066Z,4.22
2023-05-02T18:37:37.480Z,4.60
2023-05-02T18:40:04.724Z,4.32
2023-05-02T18:42:31.664Z,4.53
2023-05-02T18:44:58.045Z,5.10
2023-05-02T18:47:24.696Z,4.43
2023-05-02T18:49:51.156Z,4.28
2023-05-02T18:52:17.528Z,4.80
2023-05-02T18:54:43.925Z,4.70
2023-05-02T18:57:11.169Z,4.25
2023-05-02T18:59:37.543Z,4.57
2023-05-02T19:02:04.536Z,4.32
2023-05-02T19:04:31.747Z,4.28
2023-05-02T19:06:58.191Z,4.57
2023-05-02T19:09:24.682Z,4.13
2023-05-02T19:11:51.032Z,4.40
2023-05-02T19:14:17.526Z,3.90
2023-05-02T19:16:43.967Z,3.78
2023-05-02T19:19:10.348Z,3.83
2023-05-02T19:21:36.830Z,3.97
2023-05-02T19:24:03.848Z,4.05
2023-05-02T19:26:30.392Z,3.65
2023-05-02T19:28:57.162Z,4.00
2023-05-02T19:31:23.622Z,3.75
2023-05-02T19:33:51.558Z,3.72
2023-05-02T19:36:22.415Z,3.53
2023-05-02T19:38:53.892Z,3.78
2023-05-02T19:41:21.955Z,3.50
2023-05-02T19:43:48.315Z,3.42
2023-05-02T19:46:15.092Z,3.70
2023-05-02T19:48:41.767Z,3.53
2023-05-02T19:51:08.229Z,3.85
2023-05-02T19:53:35.397Z,4.20
2023-05-02T19:56:02.744Z,4.10
2023-05-02T19:58:29.485Z,4.47
2023-05-02T20:00:55.897Z,3.80
2023-05-02T20:03:22.818Z,3.78
2023-05-02T20:05:49.660Z,3.90
2023-05-02T20:08:16.441Z,4.57
2023-05-02T20:10:43.400Z,3.88
2023-05-02T20:13:10.689Z,4.40
2023-05-02T20:15:37.319Z,3.92
2023-05-02T20:18:03.989Z,4.20
2023-05-02T20:20:31.597Z,4.00
2023-05-02T20:22:59.139Z,4.40
2023-05-02T20:25:25.558Z,4.28
2023-05-02T20:27:52.312Z,4.38
2023-05-02T20:30:19.077Z,4.60
2023-05-02T20:32:45.606Z,4.47
2023-05-02T20:35:11.989Z,4.18
2023-05-02T20:37:38.349Z,4.22
2023-05-02T20:40:05.636Z,4.55
2023-05-02T20:42:32.422Z,4.32
2023-05-02T20:45:01.625Z,4.55
2023-05-02T20:47:31.823Z,4.90
2023-05-02T20:49:58.473Z,4.20
2023-05-02T20:52:25.021Z,5.80
2023-05-02T20:54:57.263Z,5.00
2023-05-02T20:57:24.333Z,4.55
2023-05-02T20:59:51.154Z,4.63
2023-05-02T21:02:17.560Z,5.28
2023-05-02T21:04:43.910Z,4.45
2023-05-02T21:07:11.468Z,4.35
2023-05-02T21:09:37.869Z,5.10
2023-05-02T21:12:04.278Z,4.93
2023-05-02T21:14:30.826Z,4.85
2023-05-02T21:16:57.166Z,6.85
2023-05-02T21:19:23.606Z,7.53
2023-05-02T21:21:49.985Z,5.45
2023-05-02T21:24:16.443Z,6.05
2023-05-02T21:26:42.939Z,5.53
2023-05-02T21:29:10.820Z,5.55
2023-05-02T21:31:39.286Z,5.50
2023-05-02T21:34:06.022Z,5.00
2023-05-02T21:36:32.621Z,5.43
2023-05-02T21:38:58.956Z,5.53
2023-05-02T21:41:25.397Z,5.65
2023-05-02T21:43:51.937Z,5.70
2023-05-02T21:46:18.314Z,5.38
2023-05-02T21:48:44.711Z,5.70
2023-05-02T21:51:11.603Z,5.35
2023-05-02T21:53:38.022Z,5.55
2023-05-02T21:56:04.799Z,5.93
2023-05-02T21:58:31.329Z,5.57
2023-05-02T22:00:57.768Z,5.47
2023-05-02T22:03:25.300Z,5.72
2023-05-02T22:05:54.381Z,5.25
2023-05-02T22:08:21.773Z,5.50
2023-05-02T22:10:48.560Z,5.60
2023-05-02T22:13:15.122Z,5.22
2023-05-02T22:15:42.852Z,5.28
2023-05-02T22:18:10.472Z,4.65
2023-05-02T22:20:37.938Z,4.85
2023-05-02T22:23:04.289Z,4.82
2023-05-02T22:25:30.822Z,5.10
2023-05-02T22:28:01.001Z,4.90
2023-05-02T22:30:27.345Z,4.63
2023-05-02T22:32:53.773Z,4.55
2023-05-02T22:35:21.292Z,4.80
2023-05-02T22:37:47.628Z,4.90
2023-05-02T22:40:14.153Z,5.15
2023-05-02T22:42:40.650Z,4.90
2023-05-02T22:45:07.785Z,5.28
2023-05-02T22:47:34.279Z,5.05
2023-05-02T22:50:00.916Z,5.20
2023-05-02T22:52:28.693Z,5.20
2023-05-02T22:54:55.115Z,5.55
2023-05-02T22:57:22.362Z,5.45
2023-05-02T22:59:48.716Z,5.50
2023-05-02T23:02:15.358Z,5.70
2023-05-02T23:04:41.876Z,5.57
2023-05-02T23:07:08.220Z,5.28
2023-05-02T23:09:34.849Z,5.10
2023-05-02T23:12:02.674Z,5.57
2023-05-02T23:14:29.030Z,5.22
2023-05-02T23:16:55.484Z,5.53
2023-05-02T23:19:21.880Z,4.95
2023-05-02T23:21:48.239Z,5.30
2023-05-02T23:24:14.903Z,5.80
2023-05-02T23:26:41.394Z,4.80
2023-05-02T23:29:07.719Z,5.65
2023-05-02T23:31:34.199Z,5.35
2023-05-02T23:34:00.755Z,5.18
2023-05-02T23:36:27.123Z,5.32
2023-05-02T23:38:53.524Z,5.22
2023-05-02T23:41:20.330Z,5.75
2023-05-02T23:43:46.657Z,5.05
2023-05-02T23:46:13.002Z,5.90
2023-05-02T23:48:39.390Z,5.78
2023-05-02T23:51:05.751Z,5.18
2023-05-02T23:53:32.083Z,4.22
2023-05-02T23:55:58.504Z,4.32
2023-05-02T23:58:24.854Z,4.65
